createdAt,value
2017-04-30T00:00:07.596Z,5.4
2017-04-30T00:01:17.191Z,5.51
2017-04-30T00:02:26.084Z,5.42
2017-04-30T00:03:35.619Z,5.38
2017-04-30T00:04:44.506Z,5.35
2017-04-30T00:05:54.045Z,5.36
2017-04-30T00:07:03.412Z,5.33
2017-04-30T00:08:13.273Z,5.27
2017-04-30T00:09:22.807Z,5.28
2017-04-30T00:10:32.668Z,5.28
2017-04-30T00:11:41.558Z,5.3
2017-04-30T00:12:50.593Z,5.35
2017-04-30T00:14:00.136Z,5.25
2017-04-30T00:15:09.671Z,5.27
2017-04-30T00:16:18.884Z,5.3
2017-04-30T00:17:28.421Z,5.3
2017-04-30T00:18:37.681Z,5.24
2017-04-30T00:19:47.221Z,5.21
2017-04-30T00:20:56.106Z,5.2
2017-04-30T00:22:05.638Z,5.27
2017-04-30T00:23:14.851Z,5.15
2017-04-30T00:24:25.086Z,5.25
2017-04-30T00:25:34.297Z,5.25
2017-04-30T00:26:43.841Z,5.18
2017-04-30T00:27:53.374Z,5.2
2017-04-30T00:29:02.586Z,5.21
2017-04-30T00:30:12.429Z,5.22
2017-04-30T00:31:21.635Z,5.22
2017-04-30T00:32:30.843Z,5.18
2017-04-30T00:33:40.429Z,5.13
2017-04-30T00:34:49.968Z,5.17
2017-04-30T00:35:58.911Z,5.06
2017-04-30T00:37:07.800Z,5.06
2017-04-30T00:38:17.021Z,5.07
2017-04-30T00:39:26.563Z,5.07
2017-04-30T00:40:35.773Z,5.02
2017-04-30T00:41:45.720Z,5.06
2017-04-30T00:42:54.609Z,5.12
2017-04-30T00:44:04.793Z,5
2017-04-30T00:45:14.004Z,5
2017-04-30T00:46:22.893Z,4.99
2017-04-30T00:47:31.880Z,4.96
2017-04-30T00:48:41.093Z,5.03
2017-04-30T00:49:49.976Z,4.99
2017-04-30T00:50:59.554Z,5.02
2017-04-30T00:52:08.445Z,4.97
2017-04-30T00:53:17.483Z,5
2017-04-30T00:54:26.703Z,4.99
2017-04-30T00:55:35.922Z,4.99
2017-04-30T00:56:45.457Z,4.97
2017-04-30T00:57:54.666Z,4.96
2017-04-30T00:59:04.029Z,4.94
2017-04-30T01:00:13.561Z,4.91
2017-04-30T01:01:22.446Z,4.97
2017-04-30T01:02:31.653Z,4.92
2017-04-30T01:03:40.861Z,4.89
2017-04-30T01:04:49.890Z,4.96
2017-04-30T01:05:59.102Z,4.92
2017-04-30T01:07:07.982Z,4.89
2017-04-30T01:08:17.191Z,4.92
2017-04-30T01:09:26.729Z,4.94
2017-04-30T01:10:36.038Z,4.91
2017-04-30T01:11:44.922Z,4.94
2017-04-30T01:12:54.460Z,4.97
2017-04-30T01:14:03.999Z,4.94
2017-04-30T01:15:13.533Z,4.91
2017-04-30T01:16:22.564Z,4.84
2017-04-30T01:17:31.447Z,4.8
2017-04-30T01:18:40.658Z,4.84
2017-04-30T01:19:50.204Z,4.8
2017-04-30T01:20:59.742Z,4.88
2017-04-30T01:22:08.948Z,4.77
2017-04-30T01:23:18.167Z,4.82
2017-04-30T01:24:28.031Z,4.84
2017-04-30T01:25:37.241Z,4.77
2017-04-30T01:26:46.130Z,4.78
2017-04-30T01:27:55.727Z,4.77
2017-04-30T01:29:05.267Z,4.77
2017-04-30T01:30:14.802Z,4.78
2017-04-30T01:31:23.693Z,4.77
2017-04-30T01:32:32.899Z,4.75
2017-04-30T01:33:42.910Z,4.86
2017-04-30T01:34:51.794Z,4.73
2017-04-30T01:36:01.003Z,4.77
2017-04-30T01:37:10.533Z,4.77
2017-04-30T01:38:19.741Z,4.72
2017-04-30T01:39:29.428Z,4.82
2017-04-30T01:40:38.314Z,4.84
2017-04-30T01:41:47.849Z,4.73
2017-04-30T01:42:57.076Z,4.8
2017-04-30T01:44:06.610Z,4.77
2017-04-30T01:45:16.450Z,4.75
2017-04-30T01:46:25.343Z,4.7
2017-04-30T01:47:34.551Z,4.77
2017-04-30T01:48:43.765Z,4.67
2017-04-30T01:49:52.977Z,4.67
2017-04-30T01:51:02.662Z,4.72
2017-04-30T01:52:11.872Z,4.7
2017-04-30T01:53:21.417Z,4.67
2017-04-30T01:54:30.958Z,4.7
2017-04-30T01:55:40.820Z,4.62
2017-04-30T01:56:49.854Z,4.59
2017-04-30T01:57:59.112Z,4.63
2017-04-30T01:59:09.297Z,4.72
2017-04-30T02:00:18.507Z,4.59
2017-04-30T02:01:28.048Z,4.6
2017-04-30T02:02:37.730Z,4.63
2017-04-30T02:03:46.615Z,4.65
2017-04-30T02:04:55.507Z,4.52
2017-04-30T02:06:04.715Z,4.58
2017-04-30T02:07:13.597Z,4.54
2017-04-30T02:08:22.964Z,4.54
2017-04-30T02:09:32.829Z,4.58
2017-04-30T02:10:41.713Z,4.55
2017-04-30T02:11:50.595Z,4.55
2017-04-30T02:12:59.811Z,4.5
2017-04-30T02:14:09.612Z,4.48
2017-04-30T02:15:18.821Z,4.59
2017-04-30T02:16:27.702Z,4.55
2017-04-30T02:17:37.236Z,4.52
2017-04-30T02:18:46.121Z,4.45
2017-04-30T02:19:55.807Z,4.44
2017-04-30T02:21:05.016Z,4.42
2017-04-30T02:22:13.902Z,4.52
2017-04-30T02:23:23.115Z,4.54
2017-04-30T02:24:32.007Z,4.59
2017-04-30T02:25:41.863Z,4.51
2017-04-30T02:26:51.080Z,4.55
2017-04-30T02:28:00.621Z,4.42
2017-04-30T02:29:09.506Z,4.44
2017-04-30T02:30:18.393Z,4.52
2017-04-30T02:31:27.331Z,4.59
2017-04-30T02:32:36.863Z,4.44
2017-04-30T02:33:46.394Z,4.44
2017-04-30T02:34:55.642Z,4.44
2017-04-30T02:36:04.855Z,4.41
2017-04-30T02:37:14.217Z,4.45
2017-04-30T02:38:24.081Z,4.41
2017-04-30T02:39:33.292Z,4.29
2017-04-30T02:40:42.504Z,4.27
2017-04-30T02:41:51.707Z,4.34
2017-04-30T02:43:01.719Z,4.34
2017-04-30T02:44:10.936Z,4.27
2017-04-30T02:45:20.470Z,4.32
2017-04-30T02:46:29.678Z,4.36
2017-04-30T02:47:38.565Z,4.33
2017-04-30T02:48:48.078Z,4.34
2017-04-30T02:49:57.625Z,4.34
2017-04-30T02:51:07.487Z,4.27
2017-04-30T02:52:16.701Z,4.32
2017-04-30T02:53:26.559Z,4.26
2017-04-30T02:54:35.594Z,4.34
2017-04-30T02:55:44.802Z,4.33
2017-04-30T02:56:53.693Z,4.26
2017-04-30T02:58:02.904Z,4.26
2017-04-30T02:59:11.791Z,4.33
2017-04-30T03:00:21.050Z,4.32
2017-04-30T03:01:30.262Z,4.36
2017-04-30T03:02:39.474Z,4.36
2017-04-30T03:03:49.007Z,4.36
2017-04-30T03:04:58.546Z,4.29
2017-04-30T03:06:08.133Z,4.29
2017-04-30T03:07:17.340Z,4.26
2017-04-30T03:08:26.551Z,4.32
2017-04-30T03:09:35.437Z,4.24
2017-04-30T03:10:44.661Z,4.3
2017-04-30T03:11:53.699Z,4.33
2017-04-30T03:13:03.236Z,4.27
2017-04-30T03:14:12.120Z,4.3
2017-04-30T03:15:21.654Z,4.34
2017-04-30T03:16:30.536Z,4.3
2017-04-30T03:17:40.222Z,4.23
2017-04-30T03:18:49.758Z,4.12
2017-04-30T03:19:59.620Z,4.12
2017-04-30T03:21:09.154Z,4.15
2017-04-30T03:22:18.044Z,4.15
2017-04-30T03:23:27.725Z,4.15
2017-04-30T03:24:37.259Z,4.11
2017-04-30T03:25:46.467Z,4.12
2017-04-30T03:26:55.349Z,4.23
2017-04-30T03:28:04.880Z,4.08
2017-04-30T03:29:14.075Z,4.15
2017-04-30T03:30:23.613Z,4.15
2017-04-30T03:31:32.496Z,4.14
2017-04-30T03:32:41.702Z,4.08
2017-04-30T03:33:51.245Z,4.06
2017-04-30T03:35:00.832Z,4.12
2017-04-30T03:36:10.368Z,4.09
2017-04-30T03:37:19.915Z,4.09
2017-04-30T03:38:29.130Z,4.08
2017-04-30T03:39:38.340Z,4.09
2017-04-30T03:40:47.412Z,4.09
2017-04-30T03:41:56.620Z,4.02
2017-04-30T03:43:06.485Z,4.08
2017-04-30T03:44:15.376Z,4.04
2017-04-30T03:45:24.586Z,4.02
2017-04-30T03:46:33.942Z,3.91
2017-04-30T03:47:43.162Z,3.96
2017-04-30T03:48:52.696Z,3.97
2017-04-30T03:50:01.908Z,3.96
2017-04-30T03:51:10.798Z,3.91
2017-04-30T03:52:20.107Z,3.87
2017-04-30T03:53:29.321Z,3.91
2017-04-30T03:54:39.833Z,3.93
2017-04-30T03:55:48.718Z,3.83
2017-04-30T03:56:57.601Z,3.88
2017-04-30T03:58:07.286Z,3.83
2017-04-30T03:59:16.851Z,3.84
2017-04-30T04:00:26.068Z,3.9
2017-04-30T04:01:34.955Z,3.8
2017-04-30T04:02:44.490Z,3.83
2017-04-30T04:03:53.949Z,3.84
2017-04-30T04:05:03.163Z,3.86
2017-04-30T04:06:12.379Z,3.88
2017-04-30T04:07:21.273Z,3.87
2017-04-30T04:08:30.807Z,3.87
2017-04-30T04:09:40.022Z,3.75
2017-04-30T04:10:49.227Z,3.8
2017-04-30T04:11:58.114Z,3.79
2017-04-30T04:13:07.649Z,3.78
2017-04-30T04:14:16.869Z,3.8
2017-04-30T04:15:26.889Z,3.8
2017-04-30T04:16:35.779Z,3.8
2017-04-30T04:17:45.316Z,3.76
2017-04-30T04:18:54.531Z,3.8
2017-04-30T04:20:03.746Z,3.7
2017-04-30T04:21:12.933Z,3.84
2017-04-30T04:22:22.465Z,3.87
2017-04-30T04:23:31.675Z,3.79
2017-04-30T04:24:41.211Z,3.76
2017-04-30T04:25:50.419Z,3.78
2017-04-30T04:27:00.006Z,3.86
2017-04-30T04:28:09.545Z,3.86
2017-04-30T04:29:18.759Z,3.83
2017-04-30T04:30:27.653Z,3.9
2017-04-30T04:31:36.538Z,3.93
2017-04-30T04:32:45.531Z,3.91
2017-04-30T04:33:54.747Z,3.79
2017-04-30T04:35:03.635Z,3.87
2017-04-30T04:36:12.846Z,3.76
2017-04-30T04:37:21.734Z,3.88
2017-04-30T04:38:31.005Z,3.88
2017-04-30T04:39:40.220Z,3.91
2017-04-30T04:40:49.108Z,3.91
2017-04-30T04:41:58.644Z,3.96
2017-04-30T04:43:07.860Z,3.97
2017-04-30T04:44:17.188Z,3.96
2017-04-30T04:45:26.730Z,3.94
2017-04-30T04:46:36.266Z,3.97
2017-04-30T04:47:45.800Z,4.04
2017-04-30T04:48:54.683Z,4.05
2017-04-30T04:50:03.621Z,3.97
2017-04-30T04:51:12.505Z,3.96
2017-04-30T04:52:21.387Z,4.11
2017-04-30T04:53:30.922Z,4.05
2017-04-30T04:54:40.796Z,4.08
2017-04-30T04:55:49.831Z,4.05
2017-04-30T04:56:59.376Z,4.14
2017-04-30T04:58:08.262Z,4.14
2017-04-30T04:59:17.798Z,4.15
2017-04-30T05:00:27.345Z,4.14
2017-04-30T05:01:36.284Z,4.12
2017-04-30T05:02:45.827Z,4.22
2017-04-30T05:03:55.039Z,4.2
2017-04-30T05:05:04.901Z,4.2
2017-04-30T05:06:14.116Z,4.24
2017-04-30T05:07:23.160Z,4.29
2017-04-30T05:08:32.372Z,4.27
2017-04-30T05:09:41.589Z,4.29
2017-04-30T05:10:50.477Z,4.36
2017-04-30T05:11:59.696Z,4.4
2017-04-30T05:13:08.913Z,4.41
2017-04-30T05:14:18.779Z,4.37
2017-04-30T05:15:28.001Z,4.44
2017-04-30T05:16:36.887Z,4.5
2017-04-30T05:17:46.100Z,4.48
2017-04-30T05:18:55.362Z,4.58
2017-04-30T05:20:04.576Z,4.52
2017-04-30T05:21:13.789Z,4.58
2017-04-30T05:22:22.678Z,4.62
2017-04-30T05:23:31.568Z,4.69
2017-04-30T05:24:41.455Z,4.72
2017-04-30T05:25:50.342Z,4.72
2017-04-30T05:26:59.563Z,4.8
2017-04-30T05:28:09.100Z,4.82
2017-04-30T05:29:18.319Z,4.84
2017-04-30T05:30:27.355Z,5.03
2017-04-30T05:31:36.249Z,4.96
2017-04-30T05:32:45.787Z,4.99
2017-04-30T05:33:55.327Z,5.03
2017-04-30T05:35:04.865Z,5.1
2017-04-30T05:36:14.379Z,5.1
2017-04-30T05:37:23.600Z,5.1
2017-04-30T05:38:32.818Z,5.12
2017-04-30T05:39:42.735Z,5.21
2017-04-30T05:40:52.271Z,5.3
2017-04-30T05:42:01.632Z,5.36
2017-04-30T05:43:11.505Z,5.43
2017-04-30T05:44:20.397Z,5.43
2017-04-30T05:45:29.289Z,5.48
2017-04-30T05:46:38.502Z,5.43
2017-04-30T05:47:47.864Z,5.4
2017-04-30T05:48:57.404Z,5.56
2017-04-30T05:50:06.942Z,5.56
2017-04-30T05:51:15.829Z,5.64
2017-04-30T05:52:24.715Z,5.61
2017-04-30T05:53:33.760Z,5.72
2017-04-30T05:54:42.649Z,5.71
2017-04-30T05:55:51.535Z,5.65
2017-04-30T05:57:00.747Z,5.75
2017-04-30T05:58:09.968Z,5.74
2017-04-30T05:59:18.861Z,5.78
2017-04-30T06:00:28.729Z,5.86
2017-04-30T06:01:37.615Z,5.83
2017-04-30T06:02:46.516Z,5.9
2017-04-30T06:03:56.383Z,5.85
2017-04-30T06:05:05.319Z,5.86
2017-04-30T06:06:14.532Z,5.82
2017-04-30T06:07:23.746Z,5.89
2017-04-30T06:08:33.290Z,5.9
2017-04-30T06:09:42.504Z,5.9
2017-04-30T06:10:51.402Z,6
2017-04-30T06:12:00.619Z,6.04
2017-04-30T06:13:09.834Z,6.18
2017-04-30T06:14:19.055Z,6.08
2017-04-30T06:15:28.600Z,6.12
2017-04-30T06:16:37.490Z,6.09
2017-04-30T06:17:46.378Z,6.28
2017-04-30T06:18:55.921Z,6.28
2017-04-30T06:20:05.142Z,6.27
2017-04-30T06:21:14.031Z,6.33
2017-04-30T06:22:24.148Z,6.28
2017-04-30T06:23:33.044Z,6.33
2017-04-30T06:24:42.261Z,6.4
2017-04-30T06:25:51.806Z,6.36
2017-04-30T06:27:01.019Z,6.48
2017-04-30T06:28:10.611Z,6.48
2017-04-30T06:29:19.824Z,6.64
2017-04-30T06:30:29.036Z,6.67
2017-04-30T06:31:37.928Z,6.81
2017-04-30T06:32:46.826Z,6.87
2017-04-30T06:33:56.527Z,6.87
2017-04-30T06:35:05.738Z,6.89
2017-04-30T06:36:14.635Z,6.95
2017-04-30T06:37:23.529Z,6.89
2017-04-30T06:38:32.423Z,7.03
2017-04-30T06:39:42.170Z,6.89
2017-04-30T06:40:51.712Z,7.02
2017-04-30T06:42:00.925Z,6.99
2017-04-30T06:43:09.815Z,7.03
2017-04-30T06:44:19.360Z,7.16
2017-04-30T06:45:29.477Z,7.21
2017-04-30T06:46:38.689Z,7.31
2017-04-30T06:47:47.908Z,7.34
2017-04-30T06:48:57.122Z,7.37
2017-04-30T06:50:06.339Z,7.46
2017-04-30T06:51:15.379Z,7.48
2017-04-30T06:52:24.267Z,7.45
2017-04-30T06:53:33.164Z,7.57
2017-04-30T06:54:42.384Z,7.49
2017-04-30T06:55:51.276Z,7.6
2017-04-30T06:57:00.589Z,7.69
2017-04-30T06:58:09.815Z,7.85
2017-04-30T06:59:19.681Z,7.85
2017-04-30T07:00:29.219Z,7.82
2017-04-30T07:01:38.437Z,7.89
2017-04-30T07:02:47.803Z,7.85
2017-04-30T07:03:57.019Z,8
2017-04-30T07:05:06.236Z,8.08
2017-04-30T07:06:15.122Z,8.11
2017-04-30T07:07:24.021Z,8.11
2017-04-30T07:08:33.290Z,8.12
2017-04-30T07:09:43.193Z,8.15
2017-04-30T07:10:52.408Z,8.25
2017-04-30T07:12:01.949Z,8.26
2017-04-30T07:13:11.498Z,8.26
2017-04-30T07:14:20.861Z,8.33
2017-04-30T07:15:30.403Z,8.37
2017-04-30T07:16:39.298Z,8.37
2017-04-30T07:17:48.837Z,8.44
2017-04-30T07:18:59.034Z,8.5
2017-04-30T07:20:08.309Z,8.53
2017-04-30T07:21:17.204Z,8.56
2017-04-30T07:22:26.096Z,8.55
2017-04-30T07:23:35.316Z,8.61
2017-04-30T07:24:44.528Z,8.8
2017-04-30T07:25:53.481Z,8.73
2017-04-30T07:27:02.696Z,8.74
2017-04-30T07:28:11.584Z,8.81
2017-04-30T07:29:21.131Z,8.77
2017-04-30T07:30:30.676Z,8.94
2017-04-30T07:31:40.097Z,8.94
2017-04-30T07:32:48.987Z,8.96
2017-04-30T07:33:58.539Z,8.99
2017-04-30T07:35:07.427Z,8.96
2017-04-30T07:36:16.645Z,9.14
2017-04-30T07:37:26.336Z,9.1
2017-04-30T07:38:35.550Z,9.1
2017-04-30T07:39:45.418Z,9.2
2017-04-30T07:40:54.638Z,9.36
2017-04-30T07:42:03.529Z,9.48
2017-04-30T07:43:12.899Z,9.43
2017-04-30T07:44:22.441Z,9.53
2017-04-30T07:45:31.661Z,9.56
2017-04-30T07:46:40.892Z,9.61
2017-04-30T07:47:50.445Z,9.65
2017-04-30T07:48:59.813Z,9.61
2017-04-30T07:50:09.032Z,9.76
2017-04-30T07:51:17.926Z,9.87
2017-04-30T07:52:27.467Z,9.76
2017-04-30T07:53:36.688Z,9.9
2017-04-30T07:54:45.931Z,9.79
2017-04-30T07:55:54.829Z,9.76
2017-04-30T07:57:03.719Z,9.84
2017-04-30T07:58:12.939Z,9.76
2017-04-30T07:59:23.139Z,9.79
2017-04-30T08:00:33.113Z,9.83
2017-04-30T08:01:42.012Z,9.76
2017-04-30T08:02:51.558Z,9.94
2017-04-30T08:04:00.787Z,9.99
2017-04-30T08:05:10.330Z,10.12
2017-04-30T08:06:19.697Z,10.2
2017-04-30T08:07:28.913Z,10.38
2017-04-30T08:08:38.462Z,10.34
2017-04-30T08:09:47.352Z,10.33
2017-04-30T08:10:57.223Z,10.47
2017-04-30T08:12:06.275Z,10.41
2017-04-30T08:13:15.496Z,10.38
2017-04-30T08:14:24.722Z,10.42
2017-04-30T08:15:34.599Z,10.47
2017-04-30T08:16:43.491Z,10.53
2017-04-30T08:17:52.536Z,10.64
2017-04-30T08:19:02.405Z,10.68
2017-04-30T08:20:11.669Z,10.7
2017-04-30T08:21:20.560Z,10.78
2017-04-30T08:22:29.776Z,10.7
2017-04-30T08:23:39.293Z,10.85
2017-04-30T08:24:48.508Z,10.86
2017-04-30T08:25:58.379Z,10.86
2017-04-30T08:27:07.600Z,11
2017-04-30T08:28:16.501Z,11.02
2017-04-30T08:29:26.427Z,11.09
2017-04-30T08:30:35.970Z,11.03
2017-04-30T08:31:45.191Z,11.11
2017-04-30T08:32:54.740Z,11.09
2017-04-30T08:34:03.965Z,11.09
2017-04-30T08:35:13.257Z,11.27
2017-04-30T08:36:22.150Z,11.24
2017-04-30T08:37:31.374Z,11.24
2017-04-30T08:38:41.245Z,11.21
2017-04-30T08:39:50.135Z,11.33
2017-04-30T08:40:59.504Z,11.39
2017-04-30T08:42:08.396Z,11.43
2017-04-30T08:43:17.297Z,11.54
2017-04-30T08:44:26.533Z,11.52
2017-04-30T08:45:35.749Z,11.54
2017-04-30T08:46:45.769Z,11.47
2017-04-30T08:47:55.316Z,11.58
2017-04-30T08:49:04.864Z,11.55
2017-04-30T08:50:14.738Z,11.58
2017-04-30T08:51:23.633Z,11.6
2017-04-30T08:52:32.575Z,11.6
2017-04-30T08:53:42.449Z,11.61
2017-04-30T08:54:51.996Z,11.67
2017-04-30T08:56:01.543Z,11.76
2017-04-30T08:57:11.092Z,11.76
2017-04-30T08:58:20.457Z,11.72
2017-04-30T08:59:29.682Z,11.76
2017-04-30T09:00:38.902Z,11.79
2017-04-30T09:01:47.803Z,11.85
2017-04-30T09:02:57.020Z,11.88
2017-04-30T09:04:06.209Z,11.85
2017-04-30T09:05:15.433Z,11.85
2017-04-30T09:06:24.328Z,11.86
2017-04-30T09:07:33.873Z,11.91
2017-04-30T09:08:43.421Z,11.86
2017-04-30T09:09:53.275Z,12.1
2017-04-30T09:11:02.500Z,12.05
2017-04-30T09:12:11.718Z,12.2
2017-04-30T09:13:21.268Z,12.27
2017-04-30T09:14:31.201Z,12.23
2017-04-30T09:15:40.930Z,12.38
2017-04-30T09:16:50.150Z,12.49
2017-04-30T09:17:59.697Z,12.54
2017-04-30T09:19:09.246Z,12.53
2017-04-30T09:20:18.792Z,12.7
2017-04-30T09:21:27.831Z,12.83
2017-04-30T09:22:36.721Z,12.78
2017-04-30T09:23:45.621Z,12.75
2017-04-30T09:24:54.519Z,12.85
2017-04-30T09:26:03.738Z,12.93
2017-04-30T09:27:13.012Z,12.77
2017-04-30T09:28:21.905Z,12.65
2017-04-30T09:29:31.779Z,12.68
2017-04-30T09:30:40.680Z,12.68
2017-04-30T09:31:50.247Z,12.86
2017-04-30T09:32:59.670Z,12.85
2017-04-30T09:34:09.215Z,12.9
2017-04-30T09:35:18.111Z,13.01
2017-04-30T09:36:27.005Z,12.95
2017-04-30T09:37:35.900Z,12.92
2017-04-30T09:38:45.498Z,12.97
2017-04-30T09:39:54.394Z,12.97
2017-04-30T09:41:03.616Z,13.12
2017-04-30T09:42:12.510Z,13.04
2017-04-30T09:43:21.404Z,12.92
2017-04-30T09:44:31.101Z,13
2017-04-30T09:45:40.324Z,13.03
2017-04-30T09:46:49.546Z,13.05
2017-04-30T09:47:58.768Z,13.14
2017-04-30T09:49:08.639Z,13.15
2017-04-30T09:50:18.188Z,13.19
2017-04-30T09:51:27.086Z,13.1
2017-04-30T09:52:35.982Z,13.15
2017-04-30T09:53:45.534Z,13.17
2017-04-30T09:54:55.413Z,13.33
2017-04-30T09:56:05.438Z,13.49
2017-04-30T09:57:14.342Z,13.46
2017-04-30T09:58:23.565Z,13.59
2017-04-30T09:59:33.433Z,13.46
2017-04-30T10:00:42.329Z,13.55
2017-04-30T10:01:51.473Z,13.54
2017-04-30T10:03:00.367Z,13.63
2017-04-30T10:04:09.585Z,13.59
2017-04-30T10:05:19.128Z,13.73
2017-04-30T10:06:28.346Z,13.78
2017-04-30T10:07:37.388Z,13.78
2017-04-30T10:08:46.289Z,13.82
2017-04-30T10:09:55.510Z,13.69
2017-04-30T10:11:04.737Z,13.64
2017-04-30T10:12:13.632Z,13.69
2017-04-30T10:13:23.273Z,13.66
2017-04-30T10:14:32.822Z,13.81
2017-04-30T10:15:42.374Z,13.77
2017-04-30T10:16:51.593Z,13.84
2017-04-30T10:18:00.813Z,14.02
2017-04-30T10:19:09.857Z,13.99
2017-04-30T10:20:19.404Z,13.89
2017-04-30T10:21:28.298Z,13.84
2017-04-30T10:22:37.843Z,13.77
2017-04-30T10:23:47.067Z,13.97
2017-04-30T10:24:56.775Z,13.87
2017-04-30T10:26:06.652Z,13.91
2017-04-30T10:27:16.521Z,13.97
2017-04-30T10:28:25.757Z,14.06
2017-04-30T10:29:35.305Z,14.17
2017-04-30T10:30:44.676Z,14.21
2017-04-30T10:31:53.576Z,14.18
2017-04-30T10:33:02.476Z,14.24
2017-04-30T10:34:11.699Z,14.35
2017-04-30T10:35:20.976Z,14.65
2017-04-30T10:36:30.245Z,14.52
2017-04-30T10:37:39.142Z,14.64
2017-04-30T10:38:48.688Z,14.64
2017-04-30T10:39:57.907Z,14.57
2017-04-30T10:41:07.129Z,14.54
2017-04-30T10:42:16.171Z,14.54
2017-04-30T10:43:25.393Z,14.55
2017-04-30T10:44:35.594Z,14.68
2017-04-30T10:45:44.814Z,14.62
2017-04-30T10:46:53.714Z,14.58
2017-04-30T10:48:03.409Z,14.57
2017-04-30T10:49:12.631Z,14.5
2017-04-30T10:50:22.500Z,14.64
2017-04-30T10:51:31.396Z,14.64
2017-04-30T10:52:40.951Z,14.65
2017-04-30T10:53:50.921Z,14.75
2017-04-30T10:55:00.468Z,14.73
2017-04-30T10:56:09.694Z,14.84
2017-04-30T10:57:18.919Z,14.89
2017-04-30T10:58:28.466Z,14.95
2017-04-30T10:59:38.161Z,14.89
2017-04-30T11:00:47.742Z,14.99
2017-04-30T11:01:56.964Z,15.09
2017-04-30T11:03:06.186Z,15.13
2017-04-30T11:04:15.733Z,14.78
2017-04-30T11:05:25.105Z,14.83
2017-04-30T11:06:34.646Z,14.81
2017-04-30T11:07:43.865Z,15.01
2017-04-30T11:08:53.740Z,15.13
2017-04-30T11:10:02.968Z,15.27
2017-04-30T11:11:12.021Z,15.35
2017-04-30T11:12:21.272Z,15.38
2017-04-30T11:13:30.498Z,15.35
2017-04-30T11:14:40.042Z,15.39
2017-04-30T11:15:49.311Z,15.29
2017-04-30T11:16:58.791Z,15.25
2017-04-30T11:18:07.689Z,15.23
2017-04-30T11:19:17.238Z,15.31
2017-04-30T11:20:26.783Z,15.21
2017-04-30T11:21:35.683Z,15.27
2017-04-30T11:22:44.580Z,15.28
2017-04-30T11:23:54.457Z,15.38
2017-04-30T11:25:03.356Z,15.57
2017-04-30T11:26:12.579Z,15.5
2017-04-30T11:27:22.124Z,15.36
2017-04-30T11:28:31.645Z,15.39
2017-04-30T11:29:40.869Z,15.51
2017-04-30T11:30:50.089Z,15.65
2017-04-30T11:31:58.985Z,15.65
2017-04-30T11:33:08.528Z,15.65
2017-04-30T11:34:18.226Z,15.76
2017-04-30T11:35:27.128Z,15.84
2017-04-30T11:36:36.356Z,15.78
2017-04-30T11:37:45.595Z,15.82
2017-04-30T11:38:55.139Z,16.02
2017-04-30T11:40:04.085Z,16.01
2017-04-30T11:41:13.637Z,16.07
2017-04-30T11:42:22.866Z,16.07
2017-04-30T11:43:32.090Z,16
2017-04-30T11:44:41.314Z,15.97
2017-04-30T11:45:50.374Z,16.07
2017-04-30T11:46:59.601Z,16.3
2017-04-30T11:48:09.157Z,16.27
2017-04-30T11:49:18.707Z,16.17
2017-04-30T11:50:28.584Z,16.01
2017-04-30T11:51:37.966Z,16.02
2017-04-30T11:52:46.865Z,15.93
2017-04-30T11:53:56.749Z,16.15
2017-04-30T11:55:06.292Z,16.08
2017-04-30T11:56:15.189Z,16.05
2017-04-30T11:57:24.389Z,16.2
2017-04-30T11:58:33.295Z,16.3
2017-04-30T11:59:42.198Z,16.45
2017-04-30T12:00:51.426Z,16.63
2017-04-30T12:02:00.654Z,16.78
2017-04-30T12:03:09.858Z,16.67
2017-04-30T12:04:19.085Z,16.68
2017-04-30T12:05:28.310Z,16.56
2017-04-30T12:06:37.215Z,16.7
2017-04-30T12:07:46.126Z,16.78
2017-04-30T12:08:55.451Z,16.85
2017-04-30T12:10:04.688Z,16.73
2017-04-30T12:11:13.921Z,16.78
2017-04-30T12:12:22.827Z,16.81
2017-04-30T12:13:32.386Z,16.93
2017-04-30T12:14:41.776Z,16.86
2017-04-30T12:15:51.009Z,16.93
2017-04-30T12:17:00.238Z,16.94
2017-04-30T12:18:09.471Z,16.89
2017-04-30T12:19:18.806Z,16.71
2017-04-30T12:20:28.743Z,16.76
2017-04-30T12:21:38.618Z,16.76
2017-04-30T12:22:47.526Z,16.78
2017-04-30T12:23:56.755Z,17.03
2017-04-30T12:25:05.990Z,17.04
2017-04-30T12:26:15.099Z,17.18
2017-04-30T12:27:24.333Z,17.08
2017-04-30T12:28:33.566Z,17.03
2017-04-30T12:29:43.117Z,17.16
2017-04-30T12:30:52.344Z,17.15
2017-04-30T12:32:01.737Z,16.89
2017-04-30T12:33:11.329Z,16.94
2017-04-30T12:34:20.575Z,17.06
2017-04-30T12:35:29.807Z,17.19
2017-04-30T12:36:38.714Z,17.38
2017-04-30T12:37:48.469Z,17.49
2017-04-30T12:38:57.698Z,17.56
2017-04-30T12:40:06.604Z,17.59
2017-04-30T12:41:15.514Z,17.72
2017-04-30T12:42:24.419Z,17.55
2017-04-30T12:43:33.752Z,17.7
2017-04-30T12:44:43.316Z,17.79
2017-04-30T12:45:52.556Z,17.72
2017-04-30T12:47:01.792Z,17.75
2017-04-30T12:48:11.357Z,17.78
2017-04-30T12:49:20.644Z,18.02
2017-04-30T12:50:29.922Z,17.92
2017-04-30T12:51:38.834Z,17.75
2017-04-30T12:52:47.744Z,17.59
2017-04-30T12:53:57.632Z,17.71
2017-04-30T12:55:06.791Z,17.66
2017-04-30T12:56:15.695Z,17.56
2017-04-30T12:57:24.926Z,17.74
2017-04-30T12:58:34.165Z,17.63
2017-04-30T12:59:43.079Z,17.7
2017-04-30T13:00:52.415Z,18.08
2017-04-30T13:02:01.974Z,18.21
2017-04-30T13:03:10.884Z,18.29
2017-04-30T13:04:20.771Z,18.25
2017-04-30T13:05:30.018Z,18.18
2017-04-30T13:06:39.306Z,18.27
2017-04-30T13:07:48.880Z,18.08
2017-04-30T13:08:58.773Z,18.23
2017-04-30T13:10:07.688Z,18.17
2017-04-30T13:11:16.595Z,17.99
2017-04-30T13:12:26.308Z,17.9
2017-04-30T13:13:35.223Z,17.92
2017-04-30T13:14:44.134Z,18.18
2017-04-30T13:15:53.695Z,18.17
2017-04-30T13:17:02.642Z,18.2
2017-04-30T13:18:11.707Z,18.23
2017-04-30T13:19:21.598Z,18.32
2017-04-30T13:20:30.839Z,18.3
2017-04-30T13:21:40.082Z,18.27
2017-04-30T13:22:49.652Z,18.29
2017-04-30T13:23:59.041Z,18.52
2017-04-30T13:25:08.605Z,18.55
2017-04-30T13:26:17.843Z,18.57
2017-04-30T13:27:26.755Z,18.8
2017-04-30T13:28:35.994Z,18.51
2017-04-30T13:29:45.556Z,18.44
2017-04-30T13:30:55.118Z,18.27
2017-04-30T13:32:04.362Z,18.25
2017-04-30T13:33:13.276Z,18.62
2017-04-30T13:34:23.166Z,18.82
2017-04-30T13:35:32.981Z,19
2017-04-30T13:36:41.894Z,18.88
2017-04-30T13:37:50.819Z,18.82
2017-04-30T13:39:00.386Z,18.72
2017-04-30T13:40:09.622Z,18.52
2017-04-30T13:41:18.884Z,18.57
2017-04-30T13:42:28.122Z,18.78
2017-04-30T13:43:37.361Z,19.04
2017-04-30T13:44:46.601Z,18.92
2017-04-30T13:45:55.527Z,19.19
2017-04-30T13:47:04.601Z,19.21
2017-04-30T13:48:13.854Z,19.13
2017-04-30T13:49:23.746Z,19.65
2017-04-30T13:50:33.314Z,19.77
2017-04-30T13:51:42.229Z,19.74
2017-04-30T13:52:52.273Z,19.73
2017-04-30T13:54:02.162Z,19.92
2017-04-30T13:55:11.074Z,19.95
2017-04-30T13:56:19.994Z,19.8
2017-04-30T13:57:28.930Z,19.14
2017-04-30T13:58:38.604Z,18.9
2017-04-30T13:59:47.845Z,19.07
2017-04-30T14:00:57.090Z,19.23
2017-04-30T14:02:06.332Z,19.22
2017-04-30T14:03:15.248Z,19.31
2017-04-30T14:04:24.315Z,19.55
2017-04-30T14:05:33.554Z,19.04
2017-04-30T14:06:43.115Z,18.91
2017-04-30T14:07:52.353Z,18.85
2017-04-30T14:09:01.597Z,18.78
2017-04-30T14:10:10.986Z,18.78
2017-04-30T14:11:20.222Z,18.66
2017-04-30T14:12:29.459Z,18.8
2017-04-30T14:13:38.378Z,18.95
2017-04-30T14:14:47.290Z,18.84
2017-04-30T14:15:56.899Z,18.9
2017-04-30T14:17:06.131Z,19.18
2017-04-30T14:18:15.695Z,19.21
2017-04-30T14:19:25.256Z,19.16
2017-04-30T14:20:34.496Z,19
2017-04-30T14:21:43.454Z,18.82
2017-04-30T14:22:53.017Z,19.4
2017-04-30T14:24:02.264Z,19.61
2017-04-30T14:25:11.177Z,19.61
2017-04-30T14:26:20.412Z,19.46
2017-04-30T14:27:29.681Z,19.22
2017-04-30T14:28:38.919Z,19.59
2017-04-30T14:29:48.159Z,20.1
2017-04-30T14:30:57.069Z,20.48
2017-04-30T14:32:06.313Z,20.98
2017-04-30T14:33:15.228Z,20.7
2017-04-30T14:34:24.468Z,20.23
2017-04-30T14:35:33.707Z,20.33
2017-04-30T14:36:42.955Z,20.1
2017-04-30T14:37:51.866Z,20.11
2017-04-30T14:39:01.482Z,20.08
2017-04-30T14:40:10.717Z,19.86
2017-04-30T14:41:19.627Z,19.36
2017-04-30T14:42:28.540Z,19.76
2017-04-30T14:43:37.776Z,20.2
2017-04-30T14:44:47.078Z,20.43
2017-04-30T14:45:56.317Z,20.17
2017-04-30T14:47:05.558Z,20.1
2017-04-30T14:48:14.480Z,19.92
2017-04-30T14:49:23.720Z,20.31
2017-04-30T14:50:33.865Z,20.05
2017-04-30T14:51:43.115Z,19.95
2017-04-30T14:52:52.355Z,19.59
2017-04-30T14:54:01.600Z,19.71
2017-04-30T14:55:11.162Z,19.81
2017-04-30T14:56:20.228Z,20.21
2017-04-30T14:57:29.785Z,19.84
2017-04-30T14:58:39.352Z,19.21
2017-04-30T14:59:48.919Z,19.46
2017-04-30T15:00:58.484Z,19.46
2017-04-30T15:02:07.724Z,18.94
2017-04-30T15:03:16.638Z,19.69
2017-04-30T15:04:26.201Z,19.98
2017-04-30T15:05:35.444Z,19.74
2017-04-30T15:06:44.687Z,20.03
2017-04-30T15:07:54.450Z,20.03
2017-04-30T15:09:03.364Z,20.03
2017-04-30T15:10:13.254Z,19.95
2017-04-30T15:11:22.163Z,19.8